Time;durP1;ratioP1;P1;durP2;ratioP2;P2;SDS_P1;SDS_P2;PMS_P1;PMS_P2;Temp;Humidity;BMP_temperature;BMP_pressure;BME280_temperature;BME280_humidity;BME280_pressure;Samples;Min_cycle;Max_cycle;Signal;HPM_P1;HPM_P2
2021/06/04 00:01:16;;;;;;;10.78;5.00;;;;;;;14.40;58.56;100582.43;1697622;84;21809;-78
2021/06/04 00:03:43;;;;;;;7.75;4.83;;;;;;;14.40;58.76;100587.29;1697703;84;21596;-80
2021/06/04 00:06:12;;;;;;;10.70;5.17;;;;;;;14.37;58.65;100588.73;1697648;84;21113;-80
2021/06/04 00:08:39;;;;;;;14.55;5.08;;;;;;;14.35;58.53;100589.27;1687546;79;21100;-83
2021/06/04 00:11:12;;;;;;;7.47;5.28;;;;;;;14.31;58.83;100585.50;1676740;85;21152;-83
2021/06/04 00:13:49;;;;;;;7.42;4.78;;;;;;;14.29;59.09;100581.61;1679453;85;21286;-82
2021/06/04 00:16:29;;;;;;;10.55;5.03;;;;;;;14.26;58.58;100581.73;1678072;84;21532;-88
2021/06/04 00:18:55;;;;;;;10.93;5.08;;;;;;;14.26;58.94;100587.03;1683383;82;20998;-83
2021/06/04 00:21:34;;;;;;;9.43;4.87;;;;;;;14.24;58.91;100584.91;1681745;82;21055;-83
2021/06/04 00:24:02;;;;;;;12.55;5.62;;;;;;;14.24;58.74;100590.21;1648783;79;21541;-74
2021/06/04 00:26:30;;;;;;;10.35;4.45;;;;;;;14.22;59.72;100586.80;1656029;86;21153;-73
2021/06/04 00:28:59;;;;;;;6.45;5.05;;;;;;;14.20;59.17;100584.20;1682604;84;21169;-72
2021/06/04 00:31:27;;;;;;;6.12;4.75;;;;;;;14.21;59.18;100581.09;1677594;85;21069;-74
2021/06/04 00:33:54;;;;;;;11.93;4.67;;;;;;;14.21;58.89;100582.41;1661518;86;21154;-73
2021/06/04 00:36:24;;;;;;;8.35;4.40;;;;;;;14.21;58.63;100579.77;1685150;85;21688;-73
2021/06/04 00:38:55;;;;;;;10.20;5.08;;;;;;;14.22;58.91;100581.50;1657316;81;21103;-79
2021/06/04 00:41:27;;;;;;;8.53;5.47;;;;;;;14.23;58.81;100585.86;1689159;83;21613;-79
2021/06/04 00:43:55;;;;;;;10.53;4.95;;;;;;;14.22;58.85;100581.50;1682285;84;21079;-78
2021/06/04 00:46:23;;;;;;;9.45;4.37;;;;;;;14.19;59.25;100577.17;1696776;84;21631;-78
2021/06/04 00:48:51;;;;;;;9.83;5.12;;;;;;;14.21;59.07;100576.64;1681812;85;21054;-79
2021/06/04 00:51:24;;;;;;;13.13;5.35;;;;;;;14.22;60.21;100581.50;1647263;85;21106;-80
2021/06/04 00:53:53;;;;;;;6.83;4.50;;;;;;;14.20;59.27;100575.41;1631232;79;21117;-81
2021/06/04 00:56:23;;;;;;;9.68;4.95;;;;;;;14.18;58.83;100582.56;1643856;87;21831;-80
2021/06/04 00:58:50;;;;;;;12.10;4.90;;;;;;;14.17;59.19;100584.36;1705888;84;21062;-80
2021/06/04 01:01:20;;;;;;;7.53;5.22;;;;;;;14.04;59.39;100557.55;1705433;82;21558;-82
2021/06/04 01:03:53;;;;;;;9.68;5.00;;;;;;;14.15;59.88;100586.20;1705699;83;21051;-81
2021/06/04 01:06:37;;;;;;;10.53;5.17;;;;;;;14.12;60.30;100583.67;1705250;82;21071;-82
2021/06/04 01:09:17;;;;;;;10.88;5.45;;;;;;;14.11;59.56;100583.77;1719783;82;21022;-80
2021/06/04 01:12:17;;;;;;;12.20;5.33;;;;;;;14.09;59.71;100583.82;1730001;82;20994;-82
2021/06/04 01:15:17;;;;;;;12.98;4.70;;;;;;;14.05;59.70;100588.38;1730453;82;21019;-82
2021/06/04 01:18:03;;;;;;;8.55;5.28;;;;;;;14.04;60.07;100584.02;1730151;82;21123;-82
2021/06/04 01:20:56;;;;;;;8.08;5.10;;;;;;;14.03;60.69;100586.73;1622054;85;21113;-81
2021/06/04 01:23:48;;;;;;;6.12;4.65;;;;;;;14.01;61.09;100585.50;1680277;85;21608;-78
2021/06/04 01:26:32;;;;;;;7.45;5.08;;;;;;;13.98;61.08;100584.28;1625824;86;21110;-79
2021/06/04 01:29:05;;;;;;;12.00;5.62;;;;;;;13.95;60.39;100585.75;1621637;88;21090;-79
2021/06/04 01:31:48;;;;;;;5.25;4.03;;;;;;;13.91;61.00;100584.16;1646047;86;21058;-77
2021/06/04 01:34:30;;;;;;;11.12;5.40;;;;;;;13.88;62.69;100579.01;1644823;87;21601;-77
2021/06/04 01:37:08;;;;;;;6.97;4.97;;;;;;;13.87;61.47;100584.36;1700752;84;21068;-75
2021/06/04 01:39:42;;;;;;;7.65;4.83;;;;;;;13.82;61.29;100580.59;1699531;84;21605;-76
2021/06/04 01:42:12;;;;;;;8.88;5.42;;;;;;;13.78;61.36;100590.91;1700366;84;21067;-76
2021/06/04 01:44:45;;;;;;;11.35;5.87;;;;;;;13.75;61.16;100589.72;1682694;84;21098;-76
2021/06/04 01:47:17;;;;;;;8.53;5.12;;;;;;;13.74;62.10;100595.95;1682688;84;21570;-74
2021/06/04 01:49:47;;;;;;;12.45;5.45;;;;;;;13.70;62.97;100594.36;1700595;84;21138;-75
2021/06/04 01:52:31;;;;;;;8.43;5.45;;;;;;;13.67;62.57;100594.50;1682682;84;21162;-82
2021/06/04 01:55:16;;;;;;;11.70;5.55;;;;;;;13.64;64.46;100589.73;1694403;83;21761;-81
2021/06/04 01:57:53;;;;;;;16.85;6.10;;;;;;;13.64;63.00;100593.70;1693283;84;21757;-78
2021/06/04 02:00:49;;;;;;;9.83;5.70;;;;;;;13.60;62.54;100593.90;1687849;83;21455;-80
2021/06/04 02:03:20;;;;;;;10.45;5.47;;;;;;;13.57;63.48;100597.53;1693700;83;21044;-81
2021/06/04 02:05:53;;;;;;;12.73;5.83;;;;;;;13.55;63.02;100597.17;1643832;84;21026;-82
2021/06/04 02:08:29;;;;;;;7.70;5.55;;;;;;;13.50;63.41;100594.72;1694097;82;21080;-82
2021/06/04 02:10:57;;;;;;;12.33;5.50;;;;;;;13.47;63.54;100594.86;1693583;84;21155;-83
2021/06/04 02:13:26;;;;;;;8.58;5.50;;;;;;;13.39;63.82;100587.25;1693804;84;21079;-82
2021/06/04 02:16:32;;;;;;;7.40;5.28;;;;;;;13.39;63.95;100596.52;1694851;83;21120;-81
2021/06/04 02:19:12;;;;;;;9.13;5.25;;;;;;;13.37;65.37;100592.20;1693809;84;21018;-81
2021/06/04 02:21:58;;;;;;;10.72;4.97;;;;;;;13.37;65.01;100592.20;1696327;83;21056;-81
2021/06/04 02:25:07;;;;;;;7.55;5.00;;;;;;;13.36;65.12;100595.77;1683777;83;21579;-80
2021/06/04 02:27:41;;;;;;;9.25;5.45;;;;;;;13.35;65.92;100591.41;1694821;84;21029;-79
2021/06/04 02:30:36;;;;;;;7.60;5.40;;;;;;;13.33;65.63;100588.81;1694623;84;21116;-80
2021/06/04 02:33:26;;;;;;;9.63;5.50;;;;;;;13.35;64.47;100600.67;1695100;84;21181;-80
2021/06/04 02:36:08;;;;;;;8.43;5.45;;;;;;;13.36;65.14;100595.77;1694924;84;21584;-78
2021/06/04 02:38:48;;;;;;;6.53;5.08;;;;;;;13.38;65.47;100590.80;1693635;84;21187;-79
2021/06/04 02:41:28;;;;;;;13.53;5.55;;;;;;;13.40;65.10;100591.61;1693513;83;21080;-79
2021/06/04 02:44:14;;;;;;;8.75;5.72;;;;;;;13.43;64.63;100599.87;1693910;84;21575;-80
2021/06/04 02:46:50;;;;;;;8.23;4.85;;;;;;;13.47;65.65;100595.33;1698898;84;21062;-80
2021/06/04 02:49:21;;;;;;;9.00;5.40;;;;;;;13.48;64.29;100598.36;1699337;83;21020;-79
2021/06/04 02:51:59;;;;;;;10.40;5.62;;;;;;;13.49;64.10;100602.27;1671168;84;21948;-78
2021/06/04 02:54:30;;;;;;;10.70;5.10;;;;;;;13.50;64.48;100601.80;1692444;82;21064;-78
2021/06/04 02:57:01;;;;;;;;;;;;;;;13.52;64.69;100607.42;1688140;85;21033;-77
2021/06/04 02:59:36;;;;;;;9.35;5.22;;;;;;;13.57;65.35;100601.94;1686304;85;20246;-80
2021/06/04 03:02:13;;;;;;;10.00;5.72;;;;;;;13.59;64.47;100601.42;1663849;85;21120;-81
2021/06/04 03:04:46;;;;;;;8.30;5.85;;;;;;;13.63;64.03;100607.84;1624300;88;21130;-82
2021/06/04 03:07:33;;;;;;;8.45;4.92;;;;;;;13.69;64.99;100600.56;1658817;86;21077;-81
2021/06/04 03:10:06;;;;;;;13.00;6.30;;;;;;;13.75;64.65;100602.95;1684134;83;21051;-81
2021/06/04 03:12:39;;;;;;;9.68;5.37;;;;;;;13.78;63.80;100610.76;1694145;84;21020;-82
2021/06/04 03:15:20;;;;;;;9.93;5.90;;;;;;;13.79;64.31;100609.85;1709882;83;21536;-82
2021/06/04 03:17:49;;;;;;;10.70;5.28;;;;;;;13.84;64.09;100610.03;1693818;83;21150;-81
2021/06/04 03:20:21;;;;;;;6.92;4.90;;;;;;;13.90;64.02;100606.75;1709888;83;21640;-81
2021/06/04 03:22:50;;;;;;;7.42;5.10;;;;;;;13.95;65.54;100606.94;1710288;83;21897;-82
2021/06/04 03:25:28;;;;;;;10.35;5.95;;;;;;;13.99;64.18;100597.94;1709837;83;21010;-76
2021/06/04 03:27:57;;;;;;;9.95;5.25;;;;;;;14.06;63.63;100608.66;1710657;82;21097;-78
2021/06/04 03:30:30;;;;;;;11.45;5.30;;;;;;;14.12;64.19;100607.98;1704192;82;21149;-79
2021/06/04 03:32:57;;;;;;;12.73;5.35;;;;;;;14.19;63.67;100614.73;1692020;84;21058;-79
2021/06/04 03:35:25;;;;;;;13.45;5.67;;;;;;;14.24;63.30;100606.98;1691657;84;21064;-79
2021/06/04 03:37:54;;;;;;;12.15;5.72;;;;;;;14.30;63.03;100616.44;1691844;84;21113;-78
2021/06/04 03:40:26;;;;;;;8.75;5.67;;;;;;;14.36;62.64;100616.17;1691521;84;21084;-77
2021/06/04 03:42:56;;;;;;;8.48;5.08;;;;;;;14.45;63.49;100615.76;1692092;84;21915;-77
2021/06/04 03:45:30;;;;;;;8.58;5.12;;;;;;;14.56;64.24;100610.02;1691615;84;21054;-78
2021/06/04 03:47:57;;;;;;;8.18;5.03;;;;;;;14.69;62.50;100619.09;1691939;84;21068;-77
2021/06/04 03:50:24;;;;;;;9.40;5.75;;;;;;;14.79;64.20;100609.38;1691499;84;21128;-79
2021/06/04 03:52:51;;;;;;;13.05;5.42;;;;;;;14.89;62.04;100612.87;1692025;84;21116;-80
2021/06/04 03:55:21;;;;;;;15.30;5.20;;;;;;;14.99;61.56;100619.91;1686594;83;21145;-80
2021/06/04 03:57:49;;;;;;;9.33;5.62;;;;;;;15.09;62.09;100608.39;1684433;83;21109;-78
2021/06/04 04:00:22;;;;;;;11.88;5.47;;;;;;;15.25;61.04;100612.05;1683949;85;21173;-78
2021/06/04 04:02:50;;;;;;;13.20;5.50;;;;;;;15.45;63.07;100611.05;1684138;83;21085;-75
2021/06/04 04:05:17;;;;;;;9.45;5.40;;;;;;;15.65;61.37;100612.72;1685746;85;21569;-81
2021/06/04 04:07:43;;;;;;;11.83;5.37;;;;;;;15.91;59.70;100607.89;1686314;85;21186;-76
2021/06/04 04:10:12;;;;;;;12.58;5.30;;;;;;;16.14;59.27;100615.52;1690208;81;21061;-77
2021/06/04 04:12:40;;;;;;;9.60;5.10;;;;;;;16.33;56.94;100613.22;1725004;82;21530;-73
2021/06/04 04:15:13;;;;;;;12.98;5.12;;;;;;;16.46;56.54;100607.64;1695586;83;21096;-76
2021/06/04 04:17:38;;;;;;;14.30;5.40;;;;;;;16.67;56.19;100611.41;1690144;84;21096;-78
2021/06/04 04:20:06;;;;;;;12.07;4.87;;;;;;;16.80;55.16;100612.49;1694378;84;21125;-75
2021/06/04 04:22:34;;;;;;;11.40;5.47;;;;;;;16.88;54.60;100610.25;1692947;83;21139;-72
2021/06/04 04:25:06;;;;;;;13.50;5.37;;;;;;;17.12;54.45;100613.83;1693802;80;21056;31
2021/06/04 04:27:32;;;;;;;11.97;5.28;;;;;;;17.29;53.83;100608.39;1677944;84;21738;-73
2021/06/04 04:29:59;;;;;;;12.05;4.70;;;;;;;17.60;52.88;100610.63;1676815;85;21455;-72
2021/06/04 04:32:26;;;;;;;12.20;4.72;;;;;;;17.86;51.74;100605.10;1644715;87;21108;-74
2021/06/04 04:34:55;;;;;;;10.72;5.28;;;;;;;18.05;51.00;100611.98;1652098;86;21004;-73
2021/06/04 04:37:22;;;;;;;12.47;4.97;;;;;;;18.15;50.86;100608.68;1660357;86;21012;-74
2021/06/04 04:39:50;;;;;;;10.48;4.90;;;;;;;18.35;50.05;100606.59;1646184;86;21002;-72
2021/06/04 04:42:21;;;;;;;7.25;4.80;;;;;;;18.64;49.59;100607.45;1666402;83;20981;-74
2021/06/04 04:44:50;;;;;;;8.43;4.53;;;;;;;18.95;48.53;100605.51;1669921;84;21193;-74
2021/06/04 04:47:18;;;;;;;9.98;4.75;;;;;;;19.28;47.23;100602.47;1695485;82;20977;-74
2021/06/04 04:49:45;;;;;;;14.68;4.60;;;;;;;19.58;46.94;100601.36;1762159;80;21006;-72
2021/06/04 04:52:12;;;;;;;8.65;3.87;;;;;;;19.82;45.92;100596.22;1715237;83;21025;-74
2021/06/04 04:54:46;;;;;;;15.50;5.15;;;;;;;19.99;45.78;100597.72;1694954;83;21003;-73
2021/06/04 04:57:13;;;;;;;13.38;4.35;;;;;;;20.28;45.19;100600.56;1661964;82;21117;-73
2021/06/04 04:59:40;;;;;;;10.98;4.17;;;;;;;20.53;43.73;100596.17;1688325;84;21041;-73
2021/06/04 05:02:08;;;;;;;10.68;4.40;;;;;;;20.69;42.79;100596.81;1666693;86;21009;-72
2021/06/04 05:04:36;;;;;;;10.25;4.10;;;;;;;20.74;42.88;100602.68;1666747;86;21000;-71
2021/06/04 05:07:03;;;;;;;17.42;3.75;;;;;;;20.88;43.36;100596.81;1663459;85;21050;-72
2021/06/04 05:09:31;;;;;;;11.68;4.75;;;;;;;21.04;43.75;100594.72;1668125;85;21067;-72
2021/06/04 05:11:59;;;;;;;7.87;4.15;;;;;;;21.25;42.56;100598.12;1733549;81;20985;-72
2021/06/04 05:14:26;;;;;;;12.85;4.67;;;;;;;21.49;43.08;100593.66;1713725;83;20994;-71
2021/06/04 05:16:53;;;;;;;8.65;4.40;;;;;;;21.85;41.63;100595.82;1693116;82;21017;-74
2021/06/04 05:19:20;;;;;;;5.75;4.30;;;;;;;22.17;40.45;100595.16;1694764;84;21081;-71
2021/06/04 05:21:47;;;;;;;10.70;3.75;;;;;;;22.49;39.70;100593.98;1685388;83;21129;-73
2021/06/04 05:24:14;;;;;;;6.60;3.70;;;;;;;22.73;38.24;100585.81;1679836;84;21015;-71
2021/06/04 05:26:41;;;;;;;8.15;4.10;;;;;;;23.01;38.38;100595.68;1727285;79;21033;-75
2021/06/04 05:29:09;;;;;;;10.50;4.05;;;;;;;23.30;37.86;100589.22;1705526;84;21053;-74
2021/06/04 05:31:38;;;;;;;6.95;4.00;;;;;;;23.61;36.76;100592.89;1696803;84;21076;-75
2021/06/04 05:34:05;;;;;;;13.72;3.70;;;;;;;23.79;35.71;100594.55;1660082;86;21127;-74
2021/06/04 05:36:33;;;;;;;9.85;3.30;;;;;;;23.98;34.90;100591.12;1688144;85;21006;-74
2021/06/04 05:39:14;;;;;;;7.87;3.35;;;;;;;24.25;35.36;100595.11;1687987;85;21014;-75
2021/06/04 05:41:44;;;;;;;11.47;3.07;;;;;;;24.48;35.22;100590.44;1716140;80;20976;-72
2021/06/04 05:44:14;;;;;;;8.45;3.75;;;;;;;24.72;33.58;100598.16;1738083;81;20990;-73
2021/06/04 05:46:42;;;;;;;9.88;3.72;;;;;;;24.90;34.14;100595.16;1739922;81;20989;-73
2021/06/04 05:49:11;;;;;;;12.10;3.10;;;;;;;25.00;32.80;100594.33;1738865;81;20960;-73
2021/06/04 05:51:37;;;;;;;9.53;3.05;;;;;;;25.04;32.57;100589.03;1749302;81;21537;-73
2021/06/04 05:54:05;;;;;;;5.47;2.98;;;;;;;25.16;32.20;100587.91;1739072;81;21496;-73
2021/06/04 05:56:32;;;;;;;10.03;3.67;;;;;;;25.22;31.78;100583.34;1724873;80;21025;-73
2021/06/04 05:58:59;;;;;;;5.35;3.50;;;;;;;25.29;32.69;100589.87;1702153;82;21827;-72
2021/06/04 06:01:33;;;;;;;6.70;3.10;;;;;;;25.34;31.72;100592.14;1717559;83;20910;-73
2021/06/04 06:04:02;;;;;;;12.45;5.17;;;;;;;25.44;32.20;100588.94;1717573;83;21005;-74
2021/06/04 06:06:29;;;;;;;8.25;3.40;;;;;;;25.71;32.61;100592.77;1697448;84;21457;-73
2021/06/04 06:08:57;;;;;;;12.05;2.52;;;;;;;25.93;30.16;100588.95;1717664;82;21001;-72
2021/06/04 06:11:25;;;;;;;10.88;3.05;;;;;;;26.01;28.75;100586.36;1711257;80;21129;-74
2021/06/04 06:13:57;;;;;;;4.95;2.20;;;;;;;26.09;29.10;100595.06;1734038;81;20941;-74
2021/06/04 06:16:27;;;;;;;4.85;2.08;;;;;;;26.05;28.51;100585.08;1724351;81;28161;-74
2021/06/04 06:18:54;;;;;;;4.80;2.30;;;;;;;26.10;28.29;100585.98;1728065;81;21038;-74
2021/06/04 06:21:21;;;;;;;11.78;2.55;;;;;;;26.23;26.24;100584.33;1727189;81;21111;-74
2021/06/04 06:23:48;;;;;;;14.20;4.75;;;;;;;26.17;27.10;100585.75;1728353;81;21116;-72
2021/06/04 06:26:19;;;;;;;7.83;3.02;;;;;;;26.30;29.90;100583.58;1707932;81;21079;-76
2021/06/04 06:28:47;;;;;;;7.70;2.52;;;;;;;26.59;27.44;100583.98;1674872;85;21003;-78
2021/06/04 06:31:17;;;;;;;6.62;2.50;;;;;;;26.81;26.03;100586.79;1687792;83;21480;-76
2021/06/04 06:33:44;;;;;;;7.03;2.80;;;;;;;26.84;26.02;100589.17;1690147;83;21018;-77
2021/06/04 06:36:14;;;;;;;6.53;2.52;;;;;;;26.75;25.02;100579.28;1675382;83;21718;-76
2021/06/04 06:38:41;;;;;;;9.90;2.47;;;;;;;26.66;25.49;100581.02;1694342;83;20995;-74
2021/06/04 06:41:11;;;;;;;11.10;2.17;;;;;;;26.65;26.49;100581.20;1690503;80;21620;-74
2021/06/04 06:43:39;;;;;;;12.73;2.60;;;;;;;26.68;24.83;100578.19;1730140;81;21048;-74
2021/06/04 06:46:07;;;;;;;13.53;2.77;;;;;;;26.66;25.94;100588.28;1726804;82;21552;-74
2021/06/04 06:48:36;;;;;;;12.33;2.42;;;;;;;26.86;25.28;100592.58;1728977;81;21026;-74
2021/06/04 06:51:05;;;;;;;7.37;2.30;;;;;;;26.96;24.88;100593.39;1731341;81;20989;-74
2021/06/04 06:53:31;;;;;;;5.95;2.33;;;;;;;26.96;25.86;100577.17;1727178;81;21464;-74
2021/06/04 06:55:59;;;;;;;9.03;3.27;;;;;;;26.91;25.40;100583.52;1721383;81;21408;-75
2021/06/04 06:58:26;;;;;;;7.28;2.98;;;;;;;26.96;25.97;100585.28;1712861;82;21012;-74
2021/06/04 07:00:53;;;;;;;7.87;2.37;;;;;;;27.19;25.22;100577.59;1715192;82;21781;-74
2021/06/04 07:03:26;;;;;;;8.75;2.60;;;;;;;27.30;22.70;100575.16;1713201;82;20995;-75
2021/06/04 07:05:53;;;;;;;9.40;2.22;;;;;;;27.29;24.58;100579.39;1715082;82;21501;-74
2021/06/04 07:08:20;;;;;;;6.70;2.62;;;;;;;27.25;24.00;100578.84;1697953;83;20996;-74
2021/06/04 07:10:47;;;;;;;10.63;2.20;;;;;;;27.14;24.00;100569.57;1703558;79;20991;-73
2021/06/04 07:13:16;;;;;;;6.97;2.27;;;;;;;26.97;24.80;100576.16;1692344;83;21102;-73
2021/06/04 07:15:43;;;;;;;8.10;2.10;;;;;;;26.96;24.47;100576.30;1679175;84;21033;-73
2021/06/04 07:18:11;;;;;;;8.45;2.20;;;;;;;27.12;25.47;100572.92;1690667;84;21512;-73
2021/06/04 07:20:38;;;;;;;5.50;2.02;;;;;;;27.30;23.37;100576.52;1666092;85;21549;-74
2021/06/04 07:23:09;;;;;;;11.20;2.77;;;;;;;27.31;23.01;100570.13;1705975;83;21017;-74
2021/06/04 07:25:57;;;;;;;12.23;2.22;;;;;;;27.11;23.56;100572.08;1685042;84;22322;-74
2021/06/04 07:28:27;;;;;;;7.15;1.90;;;;;;;26.85;23.77;100566.58;1685362;83;22136;-78
2021/06/04 07:30:55;;;;;;;11.08;2.62;;;;;;;26.88;24.60;100571.67;1754517;81;20974;-72
2021/06/04 07:33:32;;;;;;;13.75;2.00;;;;;;;27.06;24.19;100568.16;1754447;80;21013;-73
2021/06/04 07:36:01;;;;;;;10.93;2.00;;;;;;;27.23;23.16;100576.79;1759282;80;21635;-72
2021/06/04 07:38:28;;;;;;;18.40;2.40;;;;;;;27.49;22.44;100570.59;1759064;80;21086;-73
2021/06/04 07:40:55;;;;;;;8.98;2.08;;;;;;;27.39;22.80;100570.18;1760110;80;21422;-72
2021/06/04 07:43:25;;;;;;;9.68;2.10;;;;;;;27.16;23.68;100575.17;1699091;83;21411;-74
2021/06/04 07:45:56;;;;;;;7.92;2.20;;;;;;;26.91;24.04;100574.05;1698784;82;20992;-73
2021/06/04 07:48:23;;;;;;;7.70;1.95;;;;;;;26.89;23.30;100570.66;1680452;85;21050;-74
2021/06/04 07:50:52;;;;;;;9.75;2.40;;;;;;;27.00;23.99;100567.73;1714904;82;21791;-74
2021/06/04 07:53:21;;;;;;;3.80;1.95;;;;;;;27.12;23.07;100570.22;1673865;85;21020;-73
2021/06/04 07:56:09;;;;;;;8.48;2.05;;;;;;;27.07;22.63;100573.39;1695142;83;21035;-74
2021/06/04 07:58:36;;;;;;;10.15;2.02;;;;;;;27.09;22.79;100569.19;1685872;85;21044;-74
2021/06/04 08:01:04;;;;;;;6.35;1.98;;;;;;;26.92;23.32;100574.42;1671081;85;21015;-74
2021/06/04 08:03:33;;;;;;;7.62;2.20;;;;;;;26.84;23.32;100567.56;1657831;86;21077;-74
2021/06/04 08:06:00;;;;;;;6.95;1.90;;;;;;;26.88;24.11;100568.97;1653413;86;21006;-73
2021/06/04 08:08:27;;;;;;;10.58;1.92;;;;;;;26.95;23.19;100559.24;1691382;84;21514;-73
2021/06/04 08:11:02;;;;;;;12.55;2.27;;;;;;;26.97;22.92;100559.95;1704329;83;21086;-73
2021/06/04 08:13:30;;;;;;;10.10;2.15;;;;;;;27.08;24.19;100563.41;1638894;84;21481;-72
2021/06/04 08:16:00;;;;;;;5.83;1.87;;;;;;;27.40;22.09;100557.50;1679501;84;21063;-73
2021/06/04 08:18:29;;;;;;;6.53;1.90;;;;;;;27.52;21.71;100563.55;1694207;83;20998;-73
2021/06/04 08:20:58;;;;;;;8.95;2.47;;;;;;;27.23;22.10;100559.22;1691994;84;20936;-74
2021/06/04 08:23:30;;;;;;;10.95;2.92;;;;;;;26.85;22.04;100550.84;1691889;84;20964;-72
2021/06/04 08:26:20;;;;;;;12.25;2.12;;;;;;;26.66;22.87;100551.31;1692139;84;21023;-72
2021/06/04 08:28:47;;;;;;;8.78;1.92;;;;;;;26.66;22.81;100558.06;1786886;79;75574;-92
2021/06/04 08:31:15;;;;;;;12.60;2.15;;;;;;;26.66;22.46;100551.81;1753843;79;20939;-92
2021/06/04 08:33:45;;;;;;;16.75;2.42;;;;;;;26.78;22.50;100549.28;1756390;80;21047;-90
2021/06/04 08:36:17;;;;;;;10.90;2.40;;;;;;;26.67;22.09;100534.63;1770539;80;21497;-91
2021/06/04 08:38:44;;;;;;;10.68;2.08;;;;;;;26.58;22.89;100552.58;1763787;81;20994;-89
2021/06/04 08:41:39;;;;;;;8.68;1.87;;;;;;;26.53;22.58;100551.65;1745933;79;75283;-73
2021/06/04 08:44:35;;;;;;;11.25;1.98;;;;;;;26.36;22.65;100551.08;1770848;80;20963;-74
2021/06/04 08:47:19;;;;;;;10.85;2.20;;;;;;;26.30;23.12;100551.19;1747038;82;20988;-73
2021/06/04 08:50:12;;;;;;;8.33;1.75;;;;;;;26.44;23.24;100546.30;1758011;81;21433;-74
2021/06/04 08:53:09;;;;;;;10.72;2.00;;;;;;;26.66;22.54;100555.87;1738402;82;21923;-73
2021/06/04 08:55:44;;;;;;;11.88;1.95;;;;;;;27.08;22.12;100561.59;1738232;82;21174;-75
2021/06/04 08:58:46;;;;;;;7.30;1.75;;;;;;;27.33;21.68;100554.59;1691757;80;20986;-74
2021/06/04 09:01:36;;;;;;;15.40;2.12;;;;;;;27.16;20.51;100544.59;1699796;83;21074;-74
2021/06/04 09:04:18;;;;;;;7.65;1.90;;;;;;;26.79;22.50;100552.31;1728459;82;20963;-75
2021/06/04 09:06:54;;;;;;;10.40;1.98;;;;;;;26.99;21.98;100561.16;1707597;83;21053;-74
2021/06/04 09:09:29;;;;;;;6.62;1.92;;;;;;;27.19;21.61;100551.03;1691916;82;21110;-73
2021/06/04 09:12:03;;;;;;;11.30;2.00;;;;;;;27.35;21.89;100545.80;1665099;80;21538;-72
2021/06/04 09:14:32;;;;;;;13.43;2.40;;;;;;;27.60;21.93;100547.36;1662639;86;21022;-74
2021/06/04 09:17:06;;;;;;;16.85;2.25;;;;;;;27.60;21.29;100552.77;1697216;84;20961;-74
2021/06/04 09:19:40;;;;;;;8.03;1.95;;;;;;;27.35;20.90;100544.45;1639159;86;21080;-74
2021/06/04 09:22:08;;;;;;;8.00;1.57;;;;;;;27.20;21.57;100551.42;1668950;85;21187;-74
2021/06/04 09:24:43;;;;;;;13.20;2.37;;;;;;;27.14;22.21;100539.33;1646355;85;21038;-76
2021/06/04 09:27:38;;;;;;;6.03;1.85;;;;;;;27.44;22.40;100537.77;1662590;80;21005;-74
2021/06/04 09:30:25;;;;;;;9.25;1.72;;;;;;;27.70;23.68;100535.95;1691736;83;21076;-75
2021/06/04 09:33:15;;;;;;;8.08;2.12;;;;;;;27.93;20.77;100532.73;1694646;83;21006;-76
2021/06/04 09:36:05;;;;;;;5.62;2.00;;;;;;;28.07;22.34;100534.88;1641809;85;21322;-73
2021/06/04 09:38:46;;;;;;;8.18;1.87;;;;;;;28.30;22.80;100535.64;1693489;83;21010;-74
2021/06/04 09:41:31;;;;;;;7.05;1.80;;;;;;;28.32;22.14;100525.02;1656856;81;21491;31
2021/06/04 09:44:15;;;;;;;4.10;1.55;;;;;;;28.02;21.35;100530.42;1694873;83;20994;-73
2021/06/04 09:47:04;;;;;;;6.92;2.02;;;;;;;27.77;21.55;100530.26;1739834;81;21014;-72
2021/06/04 09:49:36;;;;;;;6.37;1.90;;;;;;;27.43;22.80;100523.91;1702189;83;22266;-78
2021/06/04 09:52:29;;;;;;;13.25;1.98;;;;;;;27.49;22.38;100528.67;1678738;84;20995;-77
2021/06/04 09:55:26;;;;;;;10.38;1.77;;;;;;;27.39;22.32;100529.61;1696564;83;20958;-77
2021/06/04 09:58:16;;;;;;;11.48;1.60;;;;;;;27.10;22.00;100528.97;1734753;80;21794;-74
2021/06/04 10:01:16;;;;;;;5.08;1.75;;;;;;;26.91;22.01;100534.88;1743519;81;21581;-73
2021/06/04 10:04:06;;;;;;;7.83;2.00;;;;;;;26.82;21.56;100523.62;1730794;81;21017;-76
2021/06/04 10:06:39;;;;;;;9.48;1.90;;;;;;;26.67;22.33;100529.22;1730856;82;20965;-76
2021/06/04 10:09:27;;;;;;;9.33;1.65;;;;;;;26.57;23.50;100530.12;1741676;81;20936;-77
2021/06/04 10:11:59;;;;;;;8.45;1.45;;;;;;;26.64;23.39;100534.91;1727075;79;21018;-72
2021/06/04 10:14:45;;;;;;;6.87;1.72;;;;;;;26.46;22.87;100531.65;1670465;85;21011;-73
2021/06/04 10:17:43;;;;;;;6.87;2.00;;;;;;;26.29;23.70;100521.63;1674434;83;21106;-71
2021/06/04 10:20:31;;;;;;;10.48;1.82;;;;;;;26.54;22.95;100515.55;1672606;85;20999;-71
2021/06/04 10:23:09;;;;;;;9.85;1.80;;;;;;;26.82;23.19;100530.38;1676110;85;21030;-71
2021/06/04 10:25:43;;;;;;;7.67;1.82;;;;;;;26.81;22.05;100529.20;1643839;87;21588;-72
2021/06/04 10:28:42;;;;;;;7.25;1.50;;;;;;;26.74;22.73;100527.61;1707013;80;21410;-77
2021/06/04 10:31:34;;;;;;;3.60;1.70;;;;;;;26.96;22.96;100521.77;1764039;79;21065;-76
2021/06/04 10:34:21;;;;;;;;;;;;;;;27.39;23.26;100515.25;1732218;80;21002;-77
2021/06/04 10:36:54;;;;;;;14.58;2.10;;;;;;;27.43;20.76;100527.97;1776034;80;20172;-76
2021/06/04 10:39:37;;;;;;;7.62;1.67;;;;;;;26.94;20.66;100534.59;1773458;80;20951;-76
2021/06/04 10:42:38;;;;;;;6.15;1.70;;;;;;;26.39;21.37;100522.45;1768320;79;20974;-73
2021/06/04 10:45:28;;;;;;;10.82;1.98;;;;;;;26.08;22.33;100517.30;1755393;80;21134;-72
2021/06/04 10:48:15;;;;;;;;;;;;;;;26.33;22.61;100526.58;1758530;81;21004;-70
2021/06/04 10:50:47;;;;;;;9.53;1.90;;;;;;;26.43;22.65;100517.58;1756494;80;20445;-70
2021/06/04 10:53:38;;;;;;;5.70;1.60;;;;;;;26.43;22.68;100517.08;1754931;81;21488;-71
2021/06/04 10:56:18;;;;;;;5.78;1.90;;;;;;;26.42;22.28;100511.34;1725564;81;21012;-71
2021/06/04 10:59:23;;;;;;;5.12;1.72;;;;;;;26.61;23.94;100514.45;1668939;79;21085;-75
2021/06/04 11:02:00;;;;;;;4.80;1.42;;;;;;;27.02;23.03;100508.64;1659724;85;21034;-75
2021/06/04 11:05:18;;;;;;;9.38;1.55;;;;;;;27.35;20.68;100513.34;1665402;85;21015;-80
2021/06/04 11:07:54;;;;;;;13.08;2.37;;;;;;;27.48;21.21;100508.90;1587475;89;21017;-73
2021/06/04 11:10:40;;;;;;;10.58;2.72;;;;;;;27.97;21.15;100504.34;1600186;89;21069;-82
2021/06/04 11:13:43;;;;;;;9.03;1.62;;;;;;;28.27;19.70;100498.91;1648607;84;21366;-73
2021/06/04 11:16:28;;;;;;;6.22;1.67;;;;;;;28.39;19.03;100502.16;1681271;85;21526;-75
2021/06/04 11:19:12;;;;;;;9.13;1.87;;;;;;;27.71;19.73;100501.12;1667762;84;20962;-75
2021/06/04 11:21:54;;;;;;;12.18;1.98;;;;;;;26.95;21.02;100502.49;1633457;86;21029;-73
2021/06/04 11:24:32;;;;;;;12.95;2.20;;;;;;;26.51;21.88;100505.03;1635528;86;21062;-76
2021/06/04 11:27:00;;;;;;;10.50;1.70;;;;;;;26.38;22.70;100512.63;1659334;80;21126;-80
2021/06/04 11:29:37;;;;;;;10.13;1.82;;;;;;;26.31;23.61;100510.19;1724308;80;21033;-76
2021/06/04 11:32:19;;;;;;;18.40;2.20;;;;;;;26.29;21.51;100508.97;1697173;83;21023;-75
2021/06/04 11:34:59;;;;;;;8.80;1.80;;;;;;;26.25;21.82;100499.97;1709183;82;21537;-77
2021/06/04 11:37:38;;;;;;;12.68;2.50;;;;;;;26.25;22.98;100505.37;1714983;82;21513;-76
2021/06/04 11:40:17;;;;;;;10.03;1.92;;;;;;;26.30;21.46;100505.29;1754323;80;21092;-77
2021/06/04 11:42:54;;;;;;;3.33;1.80;;;;;;;26.09;22.47;100500.12;1765305;78;20998;-77
2021/06/04 11:45:23;;;;;;;9.23;2.55;;;;;;;25.77;23.17;100503.19;1763328;80;21017;-76
2021/06/04 11:49:10;;;;;;;5.97;1.90;;;;;;;25.82;23.17;100497.36;1803731;79;22668;-77
2021/06/04 11:51:47;;;;;;;7.90;1.90;;;;;;;25.98;22.91;100503.02;1782984;80;21496;-79
2021/06/04 11:54:33;;;;;;;6.08;1.87;;;;;;;26.04;23.76;100498.35;1700129;83;21299;-77
2021/06/04 11:57:11;;;;;;;8.95;1.80;;;;;;;26.08;21.67;100498.92;1713795;80;20971;-75
2021/06/04 11:59:52;;;;;;;9.00;2.08;;;;;;;25.98;22.42;100497.61;1675323;85;21107;-75